createdAt,value
2022-08-25T00:00:17.309Z,51.30
2022-08-25T00:02:54.898Z,51.60
2022-08-25T00:05:29.010Z,51.60
2022-08-25T00:07:57.724Z,51.90
2022-08-25T00:10:25.706Z,51.90
2022-08-25T00:12:53.584Z,52.10
2022-08-25T00:15:22.915Z,52.20
2022-08-25T00:17:52.430Z,52.10
2022-08-25T00:20:20.617Z,52.10
2022-08-25T00:22:49.398Z,52.30
2022-08-25T00:25:19.066Z,52.40
2022-08-25T00:27:48.192Z,52.50
2022-08-25T00:30:17.410Z,52.60
2022-08-25T00:32:55.224Z,52.60
2022-08-25T00:35:26.579Z,53.30
2022-08-25T00:37:54.775Z,53.50
2022-08-25T00:40:25.716Z,53.80
2022-08-25T00:42:54.512Z,54.40
2022-08-25T00:45:23.311Z,54.30
2022-08-25T00:47:51.120Z,54.60
2022-08-25T00:50:19.929Z,54.60
2022-08-25T00:52:54.107Z,55.00
2022-08-25T00:55:31.064Z,55.40
2022-08-25T00:58:20.270Z,55.80
2022-08-25T01:00:52.304Z,56.00
2022-08-25T01:03:23.797Z,56.00
2022-08-25T01:05:55.106Z,55.80
2022-08-25T01:08:29.132Z,56.20
2022-08-25T01:11:02.635Z,56.40
2022-08-25T01:13:47.652Z,56.40
2022-08-25T01:16:16.870Z,57.30
2022-08-25T01:18:56.484Z,57.00
2022-08-25T01:21:27.445Z,58.00
2022-08-25T01:23:58.727Z,57.20
2022-08-25T01:26:33.410Z,57.70
2022-08-25T01:29:22.795Z,57.50
2022-08-25T01:32:06.124Z,57.50
2022-08-25T01:34:37.565Z,57.50
2022-08-25T01:37:05.914Z,57.80
2022-08-25T01:39:36.654Z,57.70
2022-08-25T01:42:23.989Z,57.70
2022-08-25T01:44:51.808Z,58.40
2022-08-25T01:47:19.665Z,58.10
2022-08-25T01:49:47.499Z,58.10
2022-08-25T01:52:32.214Z,58.40
2022-08-25T01:55:00.006Z,59.40
2022-08-25T01:57:31.615Z,58.60
2022-08-25T01:59:59.457Z,59.00
2022-08-25T02:02:28.153Z,59.00
2022-08-25T02:04:59.317Z,59.10
2022-08-25T02:07:28.027Z,59.20
2022-08-25T02:09:55.831Z,59.30
2022-08-25T02:12:26.606Z,59.50
2022-08-25T02:14:54.371Z,59.70
2022-08-25T02:17:22.124Z,59.60
2022-08-25T02:19:50.070Z,59.90
2022-08-25T02:22:18.900Z,59.90
2022-08-25T02:24:46.773Z,60.00
2022-08-25T02:27:14.644Z,60.10
2022-08-25T02:29:42.523Z,60.10
2022-08-25T02:32:11.388Z,60.30
2022-08-25T02:34:41.534Z,60.50
2022-08-25T02:37:09.405Z,60.50
2022-08-25T02:39:37.209Z,60.50
2022-08-25T02:42:06.832Z,60.50
2022-08-25T02:44:35.500Z,60.60
2022-08-25T02:47:03.518Z,60.60
2022-08-25T02:49:32.167Z,60.70
2022-08-25T02:52:00.623Z,60.70
2022-08-25T02:54:29.496Z,61.00
2022-08-25T02:56:57.266Z,61.20
2022-08-25T02:59:25.094Z,61.20
2022-08-25T03:01:52.854Z,61.30
2022-08-25T03:04:20.722Z,61.40
2022-08-25T03:06:48.582Z,61.50
2022-08-25T03:09:17.069Z,61.60
2022-08-25T03:11:44.888Z,62.20
2022-08-25T03:14:12.938Z,62.50
2022-08-25T03:16:43.002Z,63.10
2022-08-25T03:19:14.560Z,63.60
2022-08-25T03:21:42.340Z,65.80
2022-08-25T03:24:10.129Z,64.20
2022-08-25T03:26:54.141Z,64.40
2022-08-25T03:29:32.880Z,64.60
2022-08-25T03:32:01.246Z,65.60
2022-08-25T03:34:31.102Z,65.30
2022-08-25T03:36:59.470Z,65.40
2022-08-25T03:39:27.850Z,65.40
2022-08-25T03:41:55.704Z,65.20
2022-08-25T03:44:23.595Z,64.90
2022-08-25T03:46:52.760Z,65.00
2022-08-25T03:49:23.849Z,64.90
2022-08-25T03:51:53.943Z,64.90
2022-08-25T03:54:25.579Z,64.90
2022-08-25T03:56:54.069Z,64.70
2022-08-25T03:59:21.890Z,64.40
2022-08-25T04:01:54.439Z,64.40
2022-08-25T04:04:23.511Z,64.60
2022-08-25T04:06:51.315Z,64.80
2022-08-25T04:09:19.091Z,64.80
2022-08-25T04:11:47.162Z,65.00
2022-08-25T04:14:21.492Z,65.00
2022-08-25T04:16:50.142Z,65.10
2022-08-25T04:19:17.997Z,65.30
2022-08-25T04:21:46.058Z,65.30
2022-08-25T04:24:15.231Z,65.30
2022-08-25T04:26:50.883Z,65.80
2022-08-25T04:29:23.857Z,66.00
2022-08-25T04:31:53.479Z,65.70
2022-08-25T04:34:30.296Z,65.50
2022-08-25T04:37:23.900Z,65.90
2022-08-25T04:39:51.708Z,66.10
2022-08-25T04:42:19.703Z,66.00
2022-08-25T04:44:47.723Z,65.90
2022-08-25T04:47:15.642Z,66.20
2022-08-25T04:49:43.539Z,66.10
2022-08-25T04:52:14.525Z,66.30
2022-08-25T04:54:43.961Z,66.40
2022-08-25T04:57:11.867Z,66.70
2022-08-25T04:59:39.935Z,66.70
2022-08-25T05:02:07.846Z,66.80
2022-08-25T05:04:37.148Z,66.90
2022-08-25T05:07:05.530Z,67.00
2022-08-25T05:09:33.376Z,67.10
2022-08-25T05:12:03.127Z,67.00
2022-08-25T05:14:32.602Z,67.20
2022-08-25T05:17:00.686Z,67.30
2022-08-25T05:19:28.647Z,67.30
2022-08-25T05:21:57.729Z,67.20
2022-08-25T05:24:28.089Z,67.30
2022-08-25T05:26:56.628Z,67.20
2022-08-25T05:29:24.670Z,67.20
2022-08-25T05:31:53.438Z,67.30
2022-08-25T05:34:22.308Z,67.30
2022-08-25T05:36:51.163Z,67.40
2022-08-25T05:39:19.001Z,67.50
2022-08-25T05:41:46.905Z,67.60
2022-08-25T05:44:19.136Z,67.70
2022-08-25T05:46:49.894Z,67.60
2022-08-25T05:49:18.680Z,67.70
2022-08-25T05:51:46.542Z,67.80
2022-08-25T05:54:14.484Z,67.80
2022-08-25T05:56:42.244Z,67.80
2022-08-25T05:59:10.125Z,67.70
2022-08-25T06:02:05.579Z,67.70
2022-08-25T06:04:33.624Z,67.70
2022-08-25T06:07:01.490Z,67.60
2022-08-25T06:09:29.420Z,67.60
2022-08-25T06:11:57.437Z,67.40
2022-08-25T06:14:25.655Z,67.20
2022-08-25T06:16:53.554Z,66.80
2022-08-25T06:19:23.524Z,66.20
2022-08-25T06:21:56.162Z,66.10
2022-08-25T06:24:26.619Z,66.20
2022-08-25T06:26:54.923Z,66.00
2022-08-25T06:29:22.891Z,65.90
2022-08-25T06:31:51.154Z,66.00
2022-08-25T06:34:19.785Z,65.80
2022-08-25T06:36:51.898Z,65.70
2022-08-25T06:39:20.918Z,65.50
2022-08-25T06:41:56.516Z,65.60
2022-08-25T06:44:27.765Z,65.50
2022-08-25T06:46:55.994Z,65.30
2022-08-25T06:49:27.844Z,65.20
2022-08-25T06:51:56.104Z,65.10
2022-08-25T06:54:23.871Z,64.90
2022-08-25T06:56:51.658Z,65.00
2022-08-25T06:59:19.504Z,64.80
2022-08-25T07:01:50.105Z,64.70
2022-08-25T07:04:18.660Z,64.60
2022-08-25T07:06:46.865Z,64.60
2022-08-25T07:09:15.533Z,64.30
2022-08-25T07:11:45.678Z,64.10
2022-08-25T07:14:16.881Z,64.30
2022-08-25T07:16:49.324Z,64.30
2022-08-25T07:19:21.154Z,64.00
2022-08-25T07:21:54.226Z,64.00
2022-08-25T07:24:23.572Z,63.70
2022-08-25T07:26:51.963Z,63.40
2022-08-25T07:29:32.696Z,63.30
2022-08-25T07:32:02.738Z,63.40
2022-08-25T07:34:52.521Z,63.20
2022-08-25T07:37:47.917Z,63.10
2022-08-25T07:40:21.628Z,62.90
2022-08-25T07:42:52.059Z,62.70
2022-08-25T07:45:22.038Z,62.50
2022-08-25T07:47:51.740Z,62.60
2022-08-25T07:50:20.527Z,62.60
2022-08-25T07:52:53.869Z,62.50
2022-08-25T07:55:24.946Z,62.40
2022-08-25T07:57:57.209Z,62.30
2022-08-25T08:00:30.344Z,62.10
2022-08-25T08:02:59.891Z,62.00
2022-08-25T08:05:29.068Z,61.70
2022-08-25T08:07:58.381Z,61.40
2022-08-25T08:10:48.078Z,61.40
2022-08-25T08:13:18.363Z,61.40
2022-08-25T08:15:47.679Z,61.20
2022-08-25T08:18:16.407Z,60.90
2022-08-25T08:20:48.250Z,60.50
2022-08-25T08:23:17.780Z,60.20
2022-08-25T08:25:45.636Z,60.20
2022-08-25T08:28:13.419Z,60.00
2022-08-25T08:30:53.700Z,59.90
2022-08-25T08:33:24.296Z,59.50
2022-08-25T08:36:11.838Z,60.00
2022-08-25T08:38:42.745Z,58.90
2022-08-25T08:45:03.773Z,58.90
2022-08-25T08:47:58.303Z,58.30
2022-08-25T08:51:02.209Z,58.30
2022-08-25T08:54:06.633Z,58.20
2022-08-25T08:56:48.984Z,58.10
2022-08-25T08:59:30.023Z,58.30
2022-08-25T09:02:01.903Z,58.20
2022-08-25T09:04:37.756Z,58.20
2022-08-25T09:07:21.667Z,57.70
2022-08-25T09:09:52.365Z,56.90
2022-08-25T09:13:03.123Z,57.20
2022-08-25T09:16:08.005Z,56.20
2022-08-25T09:19:03.402Z,56.40
2022-08-25T09:21:50.871Z,55.40
2022-08-25T09:25:08.803Z,55.00
2022-08-25T09:28:03.774Z,54.40
2022-08-25T09:31:12.573Z,54.40
2022-08-25T09:33:41.106Z,53.50
2022-08-25T09:36:09.295Z,54.30
2022-08-25T09:38:37.629Z,54.50
2022-08-25T09:41:08.931Z,54.80
2022-08-25T09:43:43.125Z,54.80
2022-08-25T09:46:27.128Z,55.00
2022-08-25T09:49:10.829Z,54.70
2022-08-25T09:51:42.213Z,54.80
2022-08-25T09:54:13.931Z,54.40
2022-08-25T09:57:02.128Z,54.30
2022-08-25T09:59:37.244Z,53.20
2022-08-25T10:02:28.511Z,53.30
2022-08-25T10:04:57.188Z,53.10
2022-08-25T10:07:32.448Z,53.10
2022-08-25T10:10:16.129Z,52.70
2022-08-25T10:12:51.211Z,52.40
2022-08-25T10:15:29.431Z,52.30
2022-08-25T10:18:29.782Z,52.30
2022-08-25T10:21:07.802Z,50.60
2022-08-25T10:23:47.426Z,50.40
2022-08-25T10:27:36.927Z,50.60
2022-08-25T10:30:52.532Z,49.20
2022-08-25T10:33:58.007Z,49.40
2022-08-25T10:36:47.164Z,49.00
2022-08-25T10:39:44.459Z,50.00
2022-08-25T10:42:56.843Z,48.70
2022-08-25T10:45:46.014Z,48.30
2022-08-25T10:48:53.934Z,49.40
2022-08-25T10:51:40.157Z,48.50
2022-08-25T10:54:29.119Z,48.10
2022-08-25T10:57:09.019Z,46.80
2022-08-25T11:00:04.301Z,47.80
2022-08-25T11:02:58.068Z,47.10
2022-08-25T11:05:40.404Z,46.20
2022-08-25T11:08:20.180Z,47.20
2022-08-25T11:11:00.948Z,47.10
2022-08-25T11:13:50.757Z,47.10
2022-08-25T11:16:34.099Z,46.70
2022-08-25T11:19:21.213Z,46.70
2022-08-25T11:21:56.653Z,46.30
2022-08-25T11:25:18.481Z,47.00
2022-08-25T11:28:31.090Z,46.30
2022-08-25T11:31:02.868Z,45.00
2022-08-25T11:33:33.695Z,45.80
2022-08-25T11:36:16.169Z,45.90
2022-08-25T11:39:16.747Z,46.30
2022-08-25T11:42:16.394Z,45.20
2022-08-25T11:45:07.922Z,43.90
2022-08-25T11:48:06.650Z,44.30
2022-08-25T11:51:00.647Z,43.70
2022-08-25T11:53:48.470Z,43.60
2022-08-25T11:56:40.231Z,44.00
2022-08-25T11:59:09.086Z,42.30
2022-08-25T12:01:40.111Z,43.40
2022-08-25T12:04:13.245Z,42.90
2022-08-25T12:07:07.452Z,42.70
2022-08-25T12:09:55.249Z,41.40
2022-08-25T12:12:46.813Z,41.50
2022-08-25T12:15:26.947Z,41.40
2022-08-25T12:18:23.165Z,41.90
2022-08-25T12:20:55.198Z,40.20
2022-08-25T12:23:36.251Z,41.30
2022-08-25T12:26:46.570Z,40.80
2022-08-25T12:29:50.944Z,40.50
2022-08-25T12:32:58.609Z,39.50
2022-08-25T12:35:55.945Z,40.10
2022-08-25T12:38:51.858Z,39.70
2022-08-25T12:41:22.646Z,39.10
2022-08-25T12:44:09.090Z,39.70
2022-08-25T12:46:39.596Z,40.30
2022-08-25T12:49:31.455Z,39.50
2022-08-25T12:52:06.945Z,38.20
2022-08-25T12:54:52.722Z,39.00
2022-08-25T12:57:58.104Z,38.80
2022-08-25T13:00:52.649Z,38.60
2022-08-25T13:03:49.805Z,38.20
2022-08-25T13:07:09.203Z,37.00
2022-08-25T13:09:58.782Z,36.00
2022-08-25T13:13:01.639Z,37.20
2022-08-25T13:15:47.122Z,35.70
2022-08-25T13:18:28.857Z,34.80
2022-08-25T13:21:30.557Z,35.40
2022-08-25T13:26:57.804Z,34.70
2022-08-25T13:29:29.851Z,34.00
2022-08-25T13:32:09.206Z,34.20
2022-08-25T13:34:42.590Z,34.10
2022-08-25T13:37:29.596Z,34.40
2022-08-25T13:40:25.857Z,33.40
2022-08-25T13:43:03.038Z,33.00
2022-08-25T13:45:41.591Z,33.50
2022-08-25T13:48:23.056Z,33.60
2022-08-25T13:51:09.264Z,33.60
2022-08-25T13:53:40.515Z,32.40
2022-08-25T13:56:08.504Z,32.80
2022-08-25T13:58:45.296Z,32.60
2022-08-25T14:01:48.573Z,32.40
2022-08-25T14:04:32.491Z,32.10
2022-08-25T14:07:09.259Z,31.40
2022-08-25T14:09:54.351Z,30.00
2022-08-25T14:12:46.770Z,31.00
2022-08-25T14:15:17.557Z,29.50
2022-08-25T14:18:19.159Z,30.00
2022-08-25T14:20:53.528Z,30.20
2022-08-25T14:23:29.139Z,29.90
2022-08-25T14:25:58.330Z,29.20
2022-08-25T14:28:30.319Z,29.70
2022-08-25T14:31:33.680Z,29.60
2022-08-25T14:34:12.303Z,28.70
2022-08-25T14:36:40.332Z,28.60
2022-08-25T14:39:09.051Z,29.30
2022-08-25T14:41:40.815Z,29.50
2022-08-25T14:44:10.346Z,29.30
2022-08-25T14:46:44.585Z,29.40
2022-08-25T14:49:24.690Z,29.00
2022-08-25T14:51:53.932Z,29.00
2022-08-25T14:54:27.510Z,29.50
2022-08-25T14:56:56.672Z,29.20
2022-08-25T14:59:24.610Z,29.20
2022-08-25T15:01:52.689Z,28.60
2022-08-25T15:04:28.540Z,28.80
2022-08-25T15:07:02.859Z,28.00
2022-08-25T15:09:33.517Z,28.40
2022-08-25T15:12:48.220Z,28.20
2022-08-25T15:15:22.047Z,26.80
2022-08-25T15:17:50.624Z,27.70
2022-08-25T15:20:19.298Z,27.50
2022-08-25T15:22:48.237Z,27.50
2022-08-25T15:25:16.597Z,27.40
2022-08-25T15:27:46.051Z,27.50
2022-08-25T15:30:15.059Z,27.20
2022-08-25T15:32:43.336Z,26.90
2022-08-25T15:35:12.411Z,27.00
2022-08-25T15:37:44.755Z,27.40
2022-08-25T15:40:14.456Z,27.30
2022-08-25T15:42:42.822Z,27.30
2022-08-25T15:45:14.702Z,27.30
2022-08-25T15:47:43.145Z,27.50
2022-08-25T15:50:21.971Z,27.40
2022-08-25T15:52:51.860Z,27.00
2022-08-25T15:55:20.099Z,27.50
2022-08-25T15:57:49.752Z,27.10
2022-08-25T16:00:19.141Z,27.30
2022-08-25T16:02:46.956Z,27.50
2022-08-25T16:05:16.528Z,27.90
2022-08-25T16:07:46.252Z,27.90
2022-08-25T16:10:20.077Z,28.80
2022-08-25T16:12:48.058Z,28.40
2022-08-25T16:15:16.158Z,28.30
2022-08-25T16:17:46.999Z,28.40
2022-08-25T16:20:19.938Z,28.60
2022-08-25T16:22:49.507Z,28.70
2022-08-25T16:25:19.095Z,29.10
2022-08-25T16:27:48.447Z,28.80
2022-08-25T16:30:17.584Z,29.10
2022-08-25T16:32:46.781Z,29.10
2022-08-25T16:35:14.822Z,29.30
2022-08-25T16:37:42.651Z,29.40
2022-08-25T16:40:14.869Z,29.70
2022-08-25T16:42:43.323Z,30.00
2022-08-25T16:45:12.088Z,30.00
2022-08-25T16:47:42.632Z,30.20
2022-08-25T16:50:11.525Z,30.10
2022-08-25T16:52:59.309Z,30.00
2022-08-25T16:56:04.446Z,30.40
2022-08-25T16:58:34.587Z,30.30
2022-08-25T17:01:11.416Z,30.50
2022-08-25T17:03:44.079Z,30.80
2022-08-25T17:06:14.256Z,31.00
2022-08-25T17:08:43.158Z,31.20
2022-08-25T17:11:16.809Z,31.40
2022-08-25T17:13:49.755Z,31.60
2022-08-25T17:16:23.071Z,31.70
2022-08-25T17:18:52.569Z,32.10
2022-08-25T17:21:24.606Z,31.60
2022-08-25T17:23:55.415Z,31.80
2022-08-25T17:26:27.709Z,32.20
2022-08-25T17:29:00.833Z,32.40
2022-08-25T17:31:30.878Z,33.00
2022-08-25T17:33:59.402Z,33.10
2022-08-25T17:36:27.788Z,33.50
2022-08-25T17:38:56.715Z,33.60
2022-08-25T17:41:25.138Z,33.60
2022-08-25T17:43:52.956Z,33.80
2022-08-25T17:46:22.074Z,34.30
2022-08-25T17:48:50.170Z,33.90
2022-08-25T17:51:18.421Z,34.20
2022-08-25T17:53:47.012Z,34.40
2022-08-25T17:56:18.876Z,34.60
2022-08-25T17:58:47.855Z,34.50
2022-08-25T18:01:22.299Z,34.70
2022-08-25T18:03:50.622Z,35.10
2022-08-25T18:06:21.946Z,35.40
2022-08-25T18:08:52.184Z,35.70
2022-08-25T18:11:23.660Z,35.80
2022-08-25T18:13:53.754Z,36.20
2022-08-25T18:16:23.314Z,36.30
2022-08-25T18:18:52.850Z,36.10
2022-08-25T18:21:22.428Z,36.10
2022-08-25T18:23:50.510Z,36.30
2022-08-25T18:26:21.928Z,36.40
2022-08-25T18:28:53.388Z,36.60
2022-08-25T18:31:21.327Z,37.00
2022-08-25T18:33:51.038Z,37.10
2022-08-25T18:36:21.335Z,37.20
2022-08-25T18:39:08.934Z,37.50
2022-08-25T18:41:40.317Z,37.70
2022-08-25T18:44:10.598Z,38.10
2022-08-25T18:46:40.275Z,38.00
2022-08-25T18:49:08.615Z,38.20
2022-08-25T18:51:37.275Z,38.30
2022-08-25T18:54:05.903Z,38.40
2022-08-25T18:56:34.633Z,38.50
2022-08-25T18:59:49.969Z,38.60
2022-08-25T19:02:19.123Z,38.80
2022-08-25T19:04:47.173Z,38.60
2022-08-25T19:07:14.932Z,39.40
2022-08-25T19:09:42.725Z,38.90
2022-08-25T19:12:11.854Z,38.80
2022-08-25T19:14:50.690Z,38.80
2022-08-25T19:17:18.467Z,38.80
2022-08-25T19:19:46.273Z,39.00
2022-08-25T19:22:37.968Z,39.20
2022-08-25T19:25:02.426Z,39.20
2022-08-25T19:27:30.373Z,39.20
2022-08-25T19:29:58.891Z,39.30
2022-08-25T19:32:29.212Z,39.30
2022-08-25T19:34:57.624Z,39.40
2022-08-25T19:37:28.369Z,39.60
2022-08-25T19:39:57.692Z,40.00
2022-08-25T19:42:35.139Z,40.40
2022-08-25T19:45:10.765Z,40.60
2022-08-25T19:47:39.981Z,40.90
2022-08-25T19:50:09.559Z,41.00
2022-08-25T19:52:37.943Z,41.30
2022-08-25T19:55:07.720Z,40.90
2022-08-25T19:57:42.983Z,41.10
2022-08-25T20:00:30.034Z,41.30
2022-08-25T20:03:02.574Z,42.00
2022-08-25T20:05:31.536Z,41.80
2022-08-25T20:07:59.971Z,42.00
2022-08-25T20:10:31.854Z,42.20
2022-08-25T20:13:05.408Z,42.70
2022-08-25T20:15:39.090Z,42.80
2022-08-25T20:18:08.065Z,43.20
2022-08-25T20:20:36.284Z,43.30
2022-08-25T20:23:27.890Z,43.40
2022-08-25T20:25:55.763Z,43.40
2022-08-25T20:28:24.293Z,43.50
2022-08-25T20:30:52.123Z,43.60
2022-08-25T20:33:23.121Z,43.60
2022-08-25T20:35:53.092Z,43.60
2022-08-25T20:38:21.308Z,43.70
2022-08-25T20:40:49.195Z,43.90
2022-08-25T20:43:17.872Z,44.00
2022-08-25T20:45:49.095Z,44.10
2022-08-25T20:48:17.592Z,44.20
2022-08-25T20:50:45.356Z,44.20
2022-08-25T20:53:25.776Z,44.20
2022-08-25T20:55:53.587Z,44.30
2022-08-25T20:58:21.440Z,44.20
2022-08-25T21:00:49.269Z,44.20
2022-08-25T21:03:17.026Z,44.30
2022-08-25T21:05:47.602Z,44.30
2022-08-25T21:08:21.604Z,44.30
2022-08-25T21:10:51.652Z,44.40
2022-08-25T21:13:19.410Z,44.50
2022-08-25T21:15:49.007Z,44.70
2022-08-25T21:18:16.775Z,44.40
2022-08-25T21:20:44.703Z,44.70
2022-08-25T21:23:12.484Z,44.80
2022-08-25T21:25:42.174Z,45.00
2022-08-25T21:28:09.949Z,45.40
2022-08-25T21:30:44.813Z,45.50
2022-08-25T21:33:15.437Z,46.00
2022-08-25T21:35:43.715Z,45.80
2022-08-25T21:38:11.475Z,46.80
2022-08-25T21:40:39.846Z,46.20
2022-08-25T21:43:12.747Z,46.30
2022-08-25T21:45:46.697Z,46.30
2022-08-25T21:48:15.403Z,46.20
2022-08-25T21:50:43.195Z,46.10
2022-08-25T21:53:11.876Z,46.10
2022-08-25T21:55:41.901Z,46.00
2022-08-25T21:58:09.937Z,45.90
2022-08-25T22:00:37.715Z,46.00
2022-08-25T22:03:05.632Z,46.00
2022-08-25T22:05:37.440Z,46.20
2022-08-25T22:08:05.665Z,46.80
2022-08-25T22:10:33.524Z,46.40
2022-08-25T22:13:02.680Z,46.30
2022-08-25T22:15:30.527Z,46.40
2022-08-25T22:17:58.306Z,46.40
2022-08-25T22:20:26.194Z,46.40
2022-08-25T22:22:56.724Z,46.60
2022-08-25T22:25:24.542Z,46.60
2022-08-25T22:27:56.621Z,46.70
2022-08-25T22:30:26.078Z,46.60
2022-08-25T22:32:59.027Z,46.70
2022-08-25T22:35:28.190Z,46.80
2022-08-25T22:37:56.045Z,46.80
2022-08-25T22:40:24.026Z,46.80
2022-08-25T22:42:52.282Z,47.00
2022-08-25T22:45:20.681Z,47.00
2022-08-25T22:47:48.738Z,47.20
2022-08-25T22:50:18.104Z,47.30
2022-08-25T22:52:46.881Z,47.50
2022-08-25T22:55:16.356Z,47.90
2022-08-25T22:57:44.839Z,48.10
2022-08-25T23:00:15.417Z,48.10
2022-08-25T23:02:45.285Z,48.10
2022-08-25T23:05:15.412Z,48.10
2022-08-25T23:07:43.300Z,48.20
2022-08-25T23:10:14.101Z,48.50
2022-08-25T23:12:44.086Z,48.80
2022-08-25T23:15:14.172Z,48.90
2022-08-25T23:17:42.030Z,49.30
2022-08-25T23:20:29.225Z,49.40
2022-08-25T23:22:58.536Z,49.80
2022-08-25T23:25:26.369Z,50.20
2022-08-25T23:27:54.285Z,50.60
2022-08-25T23:30:22.375Z,51.00
2022-08-25T23:32:50.213Z,51.40
2022-08-25T23:35:18.079Z,51.50
2022-08-25T23:37:47.267Z,51.40
2022-08-25T23:40:19.362Z,51.90
2022-08-25T23:42:47.778Z,52.10
2022-08-25T23:45:16.525Z,52.40
2022-08-25T23:47:44.361Z,52.20
2022-08-25T23:50:12.737Z,52.40
2022-08-25T23:52:40.523Z,52.50
2022-08-25T23:55:08.815Z,52.60
2022-08-25T23:57:36.631Z,52.70
